Glenwood, Oregon
Current Conditions -  °F | °C
As of 6:53 PM on Saturday 25 Oct 2014 (Local Time) from KHIO Reporting Station
Broken Clouds Broken Clouds  
Wind Chill: 54°   Ceiling: 9000
Heat Index: 54°   Visibility: 10mi
Dew Point: 48°   Wind: 10mph
Humidity: 80%   Direction: 210°SSW
Pressure: 29.69"   Gusts: NA
Location:  45.6684°N, 123.34°W
Report Text: KHIO 260153Z 21009KT 10SM FEW050 SCT070 BKN090 12/09 A2969 RMK AO2 PK WND 22026/0102 RAB11E46 PRESRR SLP052 P0000 T01220089
Loading
Personal Weather Stations






























Interactive Weather Map
Tropical Storm Tracking
New forecast layout! Learn more

10-Day Weather Forecast

Advertisements
Track Severe Weather on mobile